createdAt,value
2018-06-18T00:00:14.893Z,2.33
2018-06-18T00:02:43.770Z,2.43
2018-06-18T00:05:13.562Z,2.50
2018-06-18T00:07:42.426Z,3.13
2018-06-18T00:10:11.394Z,2.23
2018-06-18T00:12:40.654Z,3.17
2018-06-18T00:15:09.566Z,2.10
2018-06-18T00:17:38.423Z,2.40
2018-06-18T00:20:07.309Z,2.20
2018-06-18T00:22:36.501Z,2.10
2018-06-18T00:25:05.761Z,3.80
2018-06-18T00:27:35.436Z,2.40
2018-06-18T00:30:04.380Z,2.87
2018-06-18T00:32:33.798Z,2.60
2018-06-18T00:35:02.669Z,2.77
2018-06-18T00:37:31.607Z,3.37
2018-06-18T00:40:01.016Z,3.50
2018-06-18T00:42:30.244Z,2.33
2018-06-18T00:44:59.535Z,2.90
2018-06-18T00:47:28.453Z,3.37
2018-06-18T00:49:57.369Z,2.47
2018-06-18T00:52:26.832Z,2.80
2018-06-18T00:54:55.688Z,3.67
2018-06-18T00:57:24.569Z,2.90
2018-06-18T00:59:53.464Z,2.93
2018-06-18T01:02:22.876Z,3.00
2018-06-18T01:04:51.726Z,5.00
2018-06-18T01:07:21.453Z,3.17
2018-06-18T01:09:50.308Z,4.63
2018-06-18T01:12:19.147Z,2.93
2018-06-18T01:14:48.082Z,3.07
2018-06-18T01:17:16.927Z,3.83
2018-06-18T01:19:45.900Z,3.73
2018-06-18T01:22:14.805Z,3.57
2018-06-18T01:24:51.060Z,3.40
2018-06-18T01:27:20.081Z,3.05
2018-06-18T01:29:49.217Z,3.20
2018-06-18T01:32:18.225Z,3.37
2018-06-18T01:34:47.300Z,3.30
2018-06-18T01:37:16.479Z,4.47
2018-06-18T01:39:45.402Z,3.97
2018-06-18T01:42:14.265Z,3.60
2018-06-18T01:44:43.115Z,2.90
2018-06-18T01:47:12.711Z,3.63
2018-06-18T01:49:41.559Z,3.10
2018-06-18T01:52:10.432Z,3.70
2018-06-18T01:54:39.284Z,3.80
2018-06-18T01:57:08.244Z,3.23
2018-06-18T01:59:37.616Z,4.77
2018-06-18T02:02:06.931Z,4.07
2018-06-18T02:04:36.155Z,3.90
2018-06-18T02:07:05.454Z,3.60
2018-06-18T02:09:34.646Z,4.73
2018-06-18T02:12:04.543Z,4.67
2018-06-18T02:14:33.415Z,3.30
2018-06-18T02:17:02.324Z,3.27
2018-06-18T02:19:31.171Z,3.17
2018-06-18T02:22:00.048Z,3.47
2018-06-18T02:24:28.871Z,3.33
2018-06-18T02:27:02.955Z,3.63
2018-06-18T02:29:37.014Z,5.00
2018-06-18T02:33:12.437Z,5.17
2018-06-18T02:35:46.808Z,4.10
2018-06-18T02:38:21.057Z,5.57
2018-06-18T02:40:50.097Z,3.80
2018-06-18T02:43:19.143Z,4.40
2018-06-18T02:45:48.082Z,3.70
2018-06-18T02:48:16.911Z,3.93
2018-06-18T02:50:45.816Z,2.97
2018-06-18T02:53:14.634Z,3.40
2018-06-18T02:55:45.669Z,4.50
2018-06-18T02:58:14.513Z,3.70
2018-06-18T03:00:43.410Z,3.00
2018-06-18T03:03:12.320Z,3.53
2018-06-18T03:05:41.181Z,3.70
2018-06-18T03:08:10.053Z,5.77
2018-06-18T03:10:38.987Z,3.73
2018-06-18T03:13:08.238Z,3.77
2018-06-18T03:15:37.036Z,4.60
2018-06-18T03:18:05.918Z,3.90
2018-06-18T03:20:40.248Z,4.07
2018-06-18T03:23:14.558Z,3.30
2018-06-18T03:26:46.564Z,4.13
2018-06-18T03:29:17.456Z,3.67
2018-06-18T03:31:46.671Z,3.80
2018-06-18T03:34:15.581Z,3.73
2018-06-18T03:36:45.067Z,3.92
2018-06-18T03:39:14.966Z,3.57
2018-06-18T03:41:46.823Z,3.67
2018-06-18T03:44:28.776Z,3.90
2018-06-18T03:46:59.951Z,4.43
2018-06-18T03:49:28.811Z,4.57
2018-06-18T03:51:57.669Z,4.43
2018-06-18T03:54:26.537Z,4.00
2018-06-18T03:56:55.393Z,3.43
2018-06-18T03:59:24.552Z,3.60
2018-06-18T04:02:01.339Z,4.03
2018-06-18T04:04:40.621Z,5.50
2018-06-18T04:07:14.998Z,4.83
2018-06-18T04:10:52.020Z,4.83
2018-06-18T04:13:20.876Z,3.43
2018-06-18T04:15:49.748Z,3.87
2018-06-18T04:18:18.588Z,4.67
2018-06-18T04:20:49.221Z,4.50
2018-06-18T04:23:18.449Z,3.83
2018-06-18T04:25:47.318Z,4.50
2018-06-18T04:28:16.152Z,3.93
2018-06-18T04:30:46.118Z,3.87
2018-06-18T04:33:17.715Z,3.70
2018-06-18T04:35:46.602Z,6.17
2018-06-18T04:38:15.457Z,5.33
2018-06-18T04:40:44.317Z,3.80
2018-06-18T04:43:18.947Z,4.87
2018-06-18T04:45:52.019Z,4.40
2018-06-18T04:48:26.244Z,3.83
2018-06-18T04:50:59.213Z,4.70
2018-06-18T04:53:28.054Z,6.37
2018-06-18T04:55:56.895Z,8.93
2018-06-18T04:58:25.774Z,6.10
2018-06-18T05:01:04.575Z,5.40
2018-06-18T05:03:33.417Z,4.53
2018-06-18T05:06:02.646Z,7.17
2018-06-18T05:08:54.509Z,7.03
2018-06-18T05:11:23.445Z,4.70
2018-06-18T05:13:52.452Z,9.30
2018-06-18T05:16:21.546Z,4.70
2018-06-18T05:18:50.479Z,4.83
2018-06-18T05:21:19.452Z,5.27
2018-06-18T05:23:48.526Z,5.93
2018-06-18T05:26:17.966Z,10.10
2018-06-18T05:28:46.742Z,5.23
2018-06-18T05:31:15.635Z,5.10
2018-06-18T05:33:45.457Z,5.53
2018-06-18T05:36:14.385Z,5.57
2018-06-18T05:38:43.389Z,5.17
2018-06-18T05:41:12.510Z,5.67
2018-06-18T05:43:41.661Z,5.90
2018-06-18T05:46:10.601Z,5.47
2018-06-18T05:48:40.478Z,5.57
2018-06-18T05:51:09.317Z,6.60
2018-06-18T05:53:38.851Z,5.47
2018-06-18T05:56:08.279Z,6.60
2018-06-18T05:58:37.621Z,6.87
2018-06-18T06:01:07.272Z,6.80
2018-06-18T06:03:36.101Z,9.30
2018-06-18T06:06:05.535Z,12.27
2018-06-18T06:08:34.454Z,12.87
2018-06-18T06:11:04.938Z,11.03
2018-06-18T06:13:35.108Z,9.43
2018-06-18T06:16:04.897Z,10.03
2018-06-18T06:18:33.745Z,8.57
2018-06-18T06:21:04.947Z,7.57
2018-06-18T06:23:33.804Z,7.90
2018-06-18T06:26:02.710Z,7.70
2018-06-18T06:28:31.606Z,7.70
2018-06-18T06:31:00.478Z,6.30
2018-06-18T06:33:29.380Z,6.83
2018-06-18T06:35:59.592Z,5.73
2018-06-18T06:38:28.462Z,6.57
2018-06-18T06:40:57.620Z,6.23
2018-06-18T06:43:26.492Z,6.17
2018-06-18T06:45:55.148Z,6.83
2018-06-18T06:48:23.992Z,6.13
2018-06-18T06:50:52.938Z,6.03
2018-06-18T06:53:21.782Z,5.30
2018-06-18T06:55:50.714Z,6.10
2018-06-18T06:58:19.805Z,5.63
2018-06-18T07:00:48.685Z,5.23
2018-06-18T07:03:17.553Z,4.97
2018-06-18T07:05:46.419Z,5.00
2018-06-18T07:08:15.290Z,5.07
2018-06-18T07:10:45.102Z,6.07
2018-06-18T07:13:14.092Z,4.70
2018-06-18T07:15:42.982Z,5.50
2018-06-18T07:18:11.864Z,5.70
2018-06-18T07:20:40.818Z,4.53
2018-06-18T07:23:09.708Z,5.33
2018-06-18T07:25:38.633Z,4.03
2018-06-18T07:28:07.546Z,5.50
2018-06-18T07:30:36.963Z,4.23
2018-06-18T07:33:05.829Z,5.60
2018-06-18T07:35:34.697Z,5.47
2018-06-18T07:38:03.557Z,4.87
2018-06-18T07:40:32.545Z,6.37
2018-06-18T07:43:01.493Z,4.60
2018-06-18T07:45:30.454Z,4.70
2018-06-18T07:47:59.363Z,5.77
2018-06-18T07:50:28.213Z,4.77
2018-06-18T07:52:57.081Z,4.50
2018-06-18T07:55:25.948Z,4.63
2018-06-18T07:57:54.787Z,5.37
2018-06-18T08:00:23.681Z,5.70
2018-06-18T08:02:52.555Z,4.87
2018-06-18T08:05:21.477Z,5.03
2018-06-18T08:07:50.387Z,4.53
2018-06-18T08:10:19.346Z,5.00
2018-06-18T08:12:48.204Z,4.83
2018-06-18T08:15:17.057Z,4.83
2018-06-18T08:17:45.903Z,5.30
2018-06-18T08:20:15.992Z,4.57
2018-06-18T08:22:45.604Z,4.63
2018-06-18T08:25:14.623Z,5.20
2018-06-18T08:27:43.510Z,5.63
2018-06-18T08:30:12.397Z,5.65
2018-06-18T08:32:41.555Z,4.90
2018-06-18T08:35:10.436Z,4.67
2018-06-18T08:37:39.325Z,5.40
2018-06-18T08:40:08.209Z,4.63
2018-06-18T08:42:37.064Z,4.50
2018-06-18T08:45:06.051Z,5.60
2018-06-18T08:47:34.915Z,4.97
2018-06-18T08:50:09.345Z,5.27
2018-06-18T08:52:43.583Z,4.50
2018-06-18T08:55:17.908Z,4.80
2018-06-18T08:57:52.257Z,4.33
2018-06-18T09:00:26.479Z,4.28
2018-06-18T09:03:00.776Z,4.57
2018-06-18T09:05:35.087Z,4.27
2018-06-18T09:08:10.292Z,3.90
2018-06-18T09:10:39.185Z,4.17
2018-06-18T09:13:08.070Z,3.43
2018-06-18T09:15:36.971Z,3.67
2018-06-18T09:18:05.851Z,3.63
2018-06-18T09:20:34.770Z,3.40
2018-06-18T09:23:08.840Z,2.90
2018-06-18T09:25:41.925Z,3.10
2018-06-18T09:28:10.770Z,3.97
2018-06-18T09:30:39.620Z,3.20
2018-06-18T09:33:08.477Z,3.30
2018-06-18T09:35:37.377Z,2.77
2018-06-18T09:38:06.264Z,3.10
2018-06-18T09:40:35.175Z,3.13
2018-06-18T09:43:04.648Z,3.17
2018-06-18T09:45:33.544Z,3.00
2018-06-18T09:48:02.456Z,3.03
2018-06-18T09:50:36.707Z,2.90
2018-06-18T09:53:10.818Z,3.10
2018-06-18T09:55:45.124Z,2.73
2018-06-18T09:58:19.356Z,2.80
2018-06-18T10:01:04.928Z,3.10
2018-06-18T10:03:33.879Z,3.00
2018-06-18T10:06:03.815Z,2.80
2018-06-18T10:08:32.790Z,3.70
2018-06-18T10:11:01.519Z,2.53
2018-06-18T10:13:30.369Z,2.90
2018-06-18T10:15:59.632Z,2.53
2018-06-18T10:18:28.510Z,3.50
2018-06-18T10:20:58.105Z,3.10
2018-06-18T10:23:27.010Z,2.90
2018-06-18T10:25:55.905Z,2.90
2018-06-18T10:28:24.819Z,3.00
2018-06-18T10:30:54.237Z,3.70
2018-06-18T10:33:29.679Z,2.60
2018-06-18T10:36:03.977Z,2.93
2018-06-18T10:38:38.351Z,2.73
2018-06-18T10:41:12.667Z,2.43
2018-06-18T10:43:41.540Z,2.83
2018-06-18T10:46:10.508Z,2.53
2018-06-18T10:48:39.395Z,2.93
2018-06-18T10:51:08.292Z,2.63
2018-06-18T10:53:42.998Z,2.77
2018-06-18T10:56:12.000Z,3.10
2018-06-18T10:58:40.885Z,2.50
2018-06-18T11:01:12.252Z,3.30
2018-06-18T11:03:42.865Z,3.33
2018-06-18T11:06:17.259Z,2.50
2018-06-18T11:08:46.563Z,3.23
2018-06-18T11:11:15.500Z,3.90
2018-06-18T11:13:47.181Z,2.57
2018-06-18T11:16:16.198Z,2.57
2018-06-18T11:18:50.389Z,2.63
2018-06-18T11:21:24.606Z,3.23
2018-06-18T11:23:58.874Z,3.23
2018-06-18T11:26:33.093Z,3.60
2018-06-18T11:29:01.988Z,3.23
2018-06-18T11:31:31.046Z,3.57
2018-06-18T11:33:59.924Z,3.73
2018-06-18T11:36:28.774Z,3.83
2018-06-18T11:38:57.788Z,3.13
2018-06-18T11:41:26.998Z,4.30
2018-06-18T11:43:56.091Z,3.40
2018-06-18T11:46:24.946Z,4.10
2018-06-18T11:48:53.856Z,3.20
2018-06-18T11:51:22.801Z,3.23
2018-06-18T11:53:51.763Z,3.83
2018-06-18T11:56:21.638Z,3.83
2018-06-18T11:58:55.810Z,5.67
2018-06-18T12:01:30.456Z,2.87
2018-06-18T12:04:04.652Z,3.03
2018-06-18T12:06:38.991Z,3.40
2018-06-18T12:09:13.883Z,4.60
2018-06-18T12:11:44.459Z,3.75
2018-06-18T12:14:13.902Z,4.00
2018-06-18T12:16:42.768Z,4.07
2018-06-18T12:19:11.719Z,3.57
2018-06-18T12:21:40.640Z,3.50
2018-06-18T12:24:09.630Z,4.00
2018-06-18T12:26:38.566Z,3.57
2018-06-18T12:29:07.850Z,3.73
2018-06-18T12:31:36.780Z,2.90
2018-06-18T12:34:05.779Z,3.00
2018-06-18T12:36:35.498Z,3.87
2018-06-18T12:39:07.155Z,3.33
2018-06-18T12:41:36.101Z,3.87
2018-06-18T12:44:04.976Z,3.83
2018-06-18T12:46:39.195Z,3.50
2018-06-18T12:49:13.820Z,4.13
2018-06-18T12:51:48.136Z,3.80
2018-06-18T12:54:24.962Z,3.33
2018-06-18T12:56:59.783Z,4.10
2018-06-18T12:59:28.688Z,3.40
2018-06-18T13:02:06.295Z,3.17
2018-06-18T13:04:38.400Z,3.80
2018-06-18T13:07:07.375Z,3.50
2018-06-18T13:09:37.096Z,3.37
2018-06-18T13:12:06.039Z,3.27
2018-06-18T13:14:35.239Z,4.57
2018-06-18T13:17:04.587Z,4.40
2018-06-18T13:19:33.618Z,3.93
2018-06-18T13:22:02.885Z,5.40
2018-06-18T13:24:31.847Z,4.40
2018-06-18T13:27:00.784Z,4.45
2018-06-18T13:29:29.752Z,3.77
2018-06-18T13:31:58.672Z,5.20
2018-06-18T13:34:27.892Z,4.30
2018-06-18T13:37:02.264Z,4.40
2018-06-18T13:39:36.649Z,4.10
2018-06-18T13:42:10.964Z,3.83
2018-06-18T13:44:45.364Z,5.00
2018-06-18T13:47:19.788Z,4.37
2018-06-18T13:49:54.076Z,5.30
2018-06-18T13:52:24.565Z,4.47
2018-06-18T13:54:53.958Z,5.23
2018-06-18T13:57:23.205Z,4.07
2018-06-18T13:59:52.403Z,4.97
2018-06-18T14:02:21.110Z,5.50
2018-06-18T14:04:50.133Z,4.30
2018-06-18T14:07:19.048Z,4.73
2018-06-18T14:09:48.101Z,4.53
2018-06-18T14:12:17.001Z,3.93
2018-06-18T14:14:45.926Z,4.80
2018-06-18T14:17:14.804Z,4.93
2018-06-18T14:19:50.434Z,5.20
2018-06-18T14:22:19.347Z,4.30
2018-06-18T14:24:48.297Z,4.23
2018-06-18T14:27:17.349Z,3.92
2018-06-18T14:29:51.675Z,4.10
2018-06-18T14:32:26.076Z,4.28
2018-06-18T14:35:00.384Z,3.93
2018-06-18T14:37:34.665Z,3.70
2018-06-18T14:40:10.225Z,3.53
2018-06-18T14:42:39.151Z,3.23
2018-06-18T14:45:08.046Z,2.57
2018-06-18T14:47:36.941Z,2.80
2018-06-18T14:50:06.109Z,2.20
2018-06-18T14:52:34.999Z,2.40
2018-06-18T14:55:05.537Z,3.10
2018-06-18T14:57:34.407Z,2.23
2018-06-18T15:00:09.792Z,2.17
2018-06-18T15:02:38.681Z,2.10
2018-06-18T15:05:08.002Z,1.80
2018-06-18T15:07:36.831Z,2.30
2018-06-18T15:10:05.722Z,2.33
2018-06-18T15:12:38.463Z,2.30
2018-06-18T15:15:12.461Z,2.17
2018-06-18T15:17:41.346Z,2.33
2018-06-18T15:20:10.300Z,1.98
2018-06-18T15:22:39.512Z,2.00
2018-06-18T15:25:12.136Z,1.90
2018-06-18T15:27:41.439Z,2.70
2018-06-18T15:30:10.781Z,1.40
2018-06-18T15:32:39.622Z,2.27
2018-06-18T15:35:08.480Z,2.67
2018-06-18T15:37:37.376Z,2.00
2018-06-18T15:40:06.367Z,1.77
2018-06-18T15:42:35.335Z,2.60
2018-06-18T15:45:04.574Z,2.00
2018-06-18T15:47:34.362Z,2.30
2018-06-18T15:50:03.329Z,2.47
2018-06-18T15:52:32.362Z,2.77
2018-06-18T15:55:01.245Z,2.47
2018-06-18T15:57:30.171Z,2.80
2018-06-18T15:59:59.266Z,2.40
2018-06-18T16:02:28.195Z,2.60
2018-06-18T16:04:57.157Z,2.50
2018-06-18T16:07:26.053Z,2.50
2018-06-18T16:09:55.124Z,3.70
2018-06-18T16:12:23.956Z,3.07
2018-06-18T16:14:52.817Z,2.30
2018-06-18T16:17:21.685Z,2.87
2018-06-18T16:19:50.505Z,2.40
2018-06-18T16:22:19.355Z,2.13
2018-06-18T16:24:48.299Z,2.47
2018-06-18T16:27:17.246Z,2.13
2018-06-18T16:29:46.117Z,2.63
2018-06-18T16:32:15.050Z,2.37
2018-06-18T16:34:46.482Z,2.00
2018-06-18T16:37:16.358Z,3.00
2018-06-18T16:39:45.253Z,2.60
2018-06-18T16:42:14.093Z,2.22
2018-06-18T16:44:42.932Z,3.70
2018-06-18T16:47:11.764Z,2.80
2018-06-18T16:49:40.858Z,3.03
2018-06-18T16:52:09.764Z,2.67
2018-06-18T16:54:38.676Z,3.17
2018-06-18T16:57:07.279Z,2.33
2018-06-18T16:59:36.122Z,2.40
2018-06-18T17:02:05.079Z,3.37
2018-06-18T17:04:33.938Z,2.27
2018-06-18T17:07:02.852Z,2.50
2018-06-18T17:09:31.675Z,2.60
2018-06-18T17:12:00.878Z,4.17
2018-06-18T17:14:29.716Z,3.87
2018-06-18T17:16:59.515Z,3.73
2018-06-18T17:19:28.383Z,2.73
2018-06-18T17:21:57.232Z,2.40
2018-06-18T17:24:26.868Z,2.70
2018-06-18T17:26:55.940Z,3.13
2018-06-18T17:29:24.837Z,3.23
2018-06-18T17:31:55.216Z,4.00
2018-06-18T17:34:24.158Z,3.73
2018-06-18T17:36:53.809Z,2.63
2018-06-18T17:39:24.163Z,2.90
2018-06-18T17:41:54.270Z,3.83
2018-06-18T17:44:23.136Z,4.77
2018-06-18T17:46:52.014Z,4.60
2018-06-18T17:49:21.808Z,4.65
2018-06-18T17:51:50.844Z,4.87
2018-06-18T17:54:20.584Z,5.08
2018-06-18T17:56:50.602Z,4.97
2018-06-18T17:59:19.944Z,5.33
2018-06-18T18:01:50.201Z,4.90
2018-06-18T18:04:19.106Z,4.67
2018-06-18T18:06:48.166Z,4.78
2018-06-18T18:09:17.012Z,4.80
2018-06-18T18:11:46.753Z,4.37
2018-06-18T18:14:16.043Z,4.60
2018-06-18T18:16:46.324Z,5.37
2018-06-18T18:19:16.198Z,4.83
2018-06-18T18:21:45.088Z,4.90
2018-06-18T18:24:14.662Z,4.73
2018-06-18T18:26:43.566Z,3.83
2018-06-18T18:29:12.732Z,4.93
2018-06-18T18:31:41.385Z,4.47
2018-06-18T18:34:10.163Z,4.23
2018-06-18T18:36:39.137Z,4.40
2018-06-18T18:39:09.166Z,4.87
2018-06-18T18:41:38.526Z,5.13
2018-06-18T18:44:07.348Z,4.10
2018-06-18T18:46:36.526Z,6.10
2018-06-18T18:49:05.393Z,4.80
2018-06-18T18:51:34.287Z,4.67
2018-06-18T18:54:03.156Z,3.90
2018-06-18T18:56:43.387Z,4.13
2018-06-18T18:59:19.200Z,4.30
2018-06-18T19:01:48.576Z,4.30
2018-06-18T19:04:22.432Z,4.07
2018-06-18T19:06:51.430Z,4.70
2018-06-18T19:09:22.225Z,3.95
2018-06-18T19:11:51.256Z,3.87
2018-06-18T19:14:19.969Z,4.80
2018-06-18T19:16:49.383Z,4.53
2018-06-18T19:19:19.128Z,4.03
2018-06-18T19:21:48.046Z,4.23
2018-06-18T19:24:16.937Z,4.23
2018-06-18T19:26:45.793Z,4.97
2018-06-18T19:29:14.634Z,4.30
2018-06-18T19:31:43.557Z,3.77
2018-06-18T19:34:16.386Z,3.87
2018-06-18T19:36:51.142Z,3.97
2018-06-18T19:39:20.606Z,4.27
2018-06-18T19:41:49.468Z,4.00
2018-06-18T19:44:18.367Z,4.27
2018-06-18T19:47:51.911Z,4.03
2018-06-18T19:50:20.788Z,4.03
2018-06-18T19:52:49.719Z,3.70
2018-06-18T19:55:21.577Z,4.53
2018-06-18T19:57:50.482Z,4.97
2018-06-18T20:00:20.105Z,4.03
2018-06-18T20:02:50.821Z,3.93
2018-06-18T20:05:20.457Z,3.90
2018-06-18T20:08:02.909Z,3.80
2018-06-18T20:10:31.952Z,4.27
2018-06-18T20:13:01.946Z,3.73
2018-06-18T20:15:30.980Z,4.07
2018-06-18T20:17:59.869Z,4.10
2018-06-18T20:20:28.733Z,4.07
2018-06-18T20:22:57.628Z,3.93
2018-06-18T20:25:30.164Z,3.42
2018-06-18T20:27:59.188Z,3.77
2018-06-18T20:30:28.104Z,3.90
2018-06-18T20:32:56.981Z,3.77
2018-06-18T20:35:28.630Z,3.73
2018-06-18T20:37:58.157Z,4.00
2018-06-18T20:40:27.397Z,3.87
2018-06-18T20:42:57.074Z,3.50
2018-06-18T20:45:26.800Z,3.90
2018-06-18T20:47:56.741Z,3.80
2018-06-18T20:50:26.091Z,3.70
2018-06-18T20:52:54.916Z,3.50
2018-06-18T20:55:23.771Z,3.20
2018-06-18T20:57:52.751Z,3.87
2018-06-18T21:00:22.776Z,3.67
2018-06-18T21:02:51.715Z,3.33
2018-06-18T21:05:20.552Z,4.00
2018-06-18T21:07:49.610Z,3.85
2018-06-18T21:10:18.458Z,3.60
2018-06-18T21:12:47.378Z,3.83
2018-06-18T21:15:16.319Z,3.80
2018-06-18T21:17:45.265Z,3.53
2018-06-18T21:20:14.499Z,3.87
2018-06-18T21:22:47.977Z,5.20
2018-06-18T21:25:17.154Z,3.33
2018-06-18T21:27:46.068Z,3.17
2018-06-18T21:30:14.978Z,3.40
2018-06-18T21:32:43.899Z,5.47
2018-06-18T21:35:12.754Z,3.50
2018-06-18T21:37:43.863Z,3.87
2018-06-18T21:40:12.768Z,4.17
2018-06-18T21:42:41.743Z,3.35
2018-06-18T21:45:15.861Z,4.83
2018-06-18T21:47:45.196Z,3.93
2018-06-18T21:50:14.132Z,3.58
2018-06-18T21:52:43.391Z,3.50
2018-06-18T21:55:12.388Z,4.23
2018-06-18T21:57:41.583Z,3.73
2018-06-18T22:00:20.335Z,4.75
2018-06-18T22:02:49.723Z,3.80
2018-06-18T22:05:18.765Z,3.67
2018-06-18T22:07:47.996Z,3.30
2018-06-18T22:10:16.881Z,5.50
2018-06-18T22:12:45.768Z,3.37
2018-06-18T22:15:14.652Z,3.95
2018-06-18T22:17:43.489Z,4.00
2018-06-18T22:20:12.345Z,3.92
2018-06-18T22:22:41.199Z,3.53
2018-06-18T22:25:10.012Z,5.80
2018-06-18T22:27:39.132Z,4.50
2018-06-18T22:30:09.152Z,3.80
2018-06-18T22:32:38.272Z,3.50
2018-06-18T22:35:07.346Z,5.17
2018-06-18T22:37:36.241Z,3.90
2018-06-18T22:40:05.097Z,4.07
2018-06-18T22:42:33.971Z,4.13
2018-06-18T22:45:02.803Z,5.00
2018-06-18T22:47:31.652Z,5.20
2018-06-18T22:50:00.586Z,3.70
2018-06-18T22:52:29.454Z,5.83
2018-06-18T22:54:58.312Z,4.73
2018-06-18T22:57:27.348Z,7.00
2018-06-18T22:59:56.236Z,4.00
2018-06-18T23:02:27.313Z,5.97
2018-06-18T23:04:56.185Z,8.35
2018-06-18T23:07:25.066Z,5.00
2018-06-18T23:09:54.092Z,6.37
2018-06-18T23:12:27.901Z,4.07
2018-06-18T23:14:56.763Z,4.60
2018-06-18T23:17:25.624Z,6.30
2018-06-18T23:19:54.502Z,4.73
2018-06-18T23:22:23.316Z,4.80
2018-06-18T23:24:52.262Z,4.70
2018-06-18T23:27:21.136Z,4.50
2018-06-18T23:29:50.012Z,5.57
2018-06-18T23:32:18.910Z,6.97
2018-06-18T23:34:47.753Z,5.23
2018-06-18T23:37:16.783Z,7.30
2018-06-18T23:39:45.662Z,5.53
2018-06-18T23:42:14.601Z,4.62
2018-06-18T23:44:43.464Z,6.93
2018-06-18T23:47:12.348Z,6.20
2018-06-18T23:49:41.201Z,5.57
2018-06-18T23:52:10.060Z,5.70
2018-06-18T23:54:38.919Z,5.27
2018-06-18T23:57:07.752Z,6.13
2018-06-18T23:59:36.595Z,5.33
